De Soto, Iowa
Current Conditions -  °F | °C
As of 6:54 AM on Monday 22 Dec 2014 (Local Time) from KDSM Reporting Station
Light Rain Light Rain  
Wind Chill: 33°   Ceiling: 1000
Heat Index: 40°   Visibility: 7mi
Dew Point: 37°   Wind: 13mph
Humidity: 89%   Direction: 140°SE
Pressure: 29.65"   Gusts: NA
Location:  41.53°N, 94.01°W
Report Text: KDSM 221254Z 14011KT 7SM -RA OVC010 04/03 A2965 RMK AO2 CIG 008V014 SLP046 P0000 T00440028
Loading
Personal Weather Stations






























Interactive Weather Map New forecast layout! Learn more

10-Day Weather Forecast

Advertisements
Track Severe Weather on mobile